Time;durP1;ratioP1;P1;durP2;ratioP2;P2;SDS_P1;SDS_P2;PMS_P1;PMS_P2;Temp;Humidity;BMP_temperature;BMP_pressure;BME280_temperature;BME280_humidity;BME280_pressure;Samples;Min_cycle;Max_cycle;Signal;HPM_P1;HPM_P2
2024/02/22 00:02:10;;;;;;;28.80;15.90;;;;;;;;;;137462;1275;22755;-81
2024/02/22 00:05:12;;;;;;;27.10;15.70;;;;;;;;;;137455;1275;22729;-82
2024/02/22 00:08:15;;;;;;;35.00;16.60;;;;;;;;;;137407;1275;22056;-82
2024/02/22 00:11:17;;;;;;;28.60;16.50;;;;;;;;;;137421;1275;22577;-83
2024/02/22 00:14:20;;;;;;;33.60;15.50;;;;;;;;;;137411;1275;22164;-83
2024/02/22 00:17:23;;;;;;;34.70;16.80;;;;;;;;;;137476;1270;22101;-81
2024/02/22 00:20:26;;;;;;;32.60;16.00;;;;;;;;;;137449;1275;22120;-82
2024/02/22 00:23:28;;;;;;;33.60;17.50;;;;;;;;;;137434;1275;22636;-82
2024/02/22 00:26:31;;;;;;;33.10;16.70;;;;;;;;;;137466;1275;22831;-82
2024/02/22 00:29:33;;;;;;;38.00;18.10;;;;;;;;;;137433;1273;22067;-82
2024/02/22 00:32:36;;;;;;;37.40;19.10;;;;;;;;;;137466;1270;22177;-82
2024/02/22 00:35:38;;;;;;;35.70;18.70;;;;;;;;;;137454;1275;22184;-83
2024/02/22 00:38:41;;;;;;;35.60;18.40;;;;;;;;;;137487;1275;22229;-83
2024/02/22 00:41:43;;;;;;;37.70;18.90;;;;;;;;;;137505;1275;22680;-84
2024/02/22 00:44:46;;;;;;;36.90;19.90;;;;;;;;;;137452;1275;22091;-83
2024/02/22 00:47:48;;;;;;;35.90;19.80;;;;;;;;;;137470;1275;22082;-83
2024/02/22 00:50:51;;;;;;;42.00;21.60;;;;;;;;;;137475;1275;22084;-84
2024/02/22 00:53:54;;;;;;;38.40;21.10;;;;;;;;;;137458;1275;22162;-82
2024/02/22 00:56:56;;;;;;;38.10;21.70;;;;;;;;;;137440;1275;22125;-82
2024/02/22 01:00:02;;;;;;;40.30;22.10;;;;;;;;;;137431;1275;22151;-83
2024/02/22 01:03:06;;;;;;;39.70;21.00;;;;;;;;;;137421;1275;22130;-81
2024/02/22 01:06:10;;;;;;;39.50;21.50;;;;;;;;;;137390;1275;22099;-81
2024/02/22 01:09:12;;;;;;;45.80;21.90;;;;;;;;;;137444;1275;22116;-82
2024/02/22 01:12:15;;;;;;;38.70;19.90;;;;;;;;;;137455;1275;22152;-83
2024/02/22 01:15:17;;;;;;;43.60;20.40;;;;;;;;;;137450;1275;22258;-83
2024/02/22 01:18:20;;;;;;;38.80;20.00;;;;;;;;;;137450;1275;22106;-83
2024/02/22 01:21:22;;;;;;;38.50;19.80;;;;;;;;;;137454;1276;22129;-81
2024/02/22 01:24:25;;;;;;;37.20;20.50;;;;;;;;;;137472;1276;22126;-82
2024/02/22 01:27:28;;;;;;;39.50;21.40;;;;;;;;;;137440;1275;22226;-81
2024/02/22 01:30:30;;;;;;;41.10;20.50;;;;;;;;;;137443;1276;22131;-82
2024/02/22 01:33:33;;;;;;;35.70;20.20;;;;;;;;;;137501;1275;22205;-82
2024/02/22 01:36:35;;;;;;;35.30;21.20;;;;;;;;;;137561;1275;22148;-82
2024/02/22 01:39:38;;;;;;;40.80;21.60;;;;;;;;;;137582;1276;22109;-82
2024/02/22 01:42:40;;;;;;;34.30;18.90;;;;;;;;;;137559;1275;22205;-81
2024/02/22 01:45:43;;;;;;;46.40;20.80;;;;;;;;;;137494;1275;22110;-82
2024/02/22 01:48:46;;;;;;;39.40;19.60;;;;;;;;;;137463;1275;22150;-82
2024/02/22 01:51:49;;;;;;;33.90;19.20;;;;;;;;;;137430;1275;22211;-82
2024/02/22 01:54:51;;;;;;;32.40;18.50;;;;;;;;;;137445;1275;22132;-82
2024/02/22 01:57:54;;;;;;;36.50;18.90;;;;;;;;;;137450;1276;22514;-85
2024/02/22 02:00:57;;;;;;;35.10;18.60;;;;;;;;;;137514;1275;22137;-84
2024/02/22 02:03:59;;;;;;;34.00;18.70;;;;;;;;;;137506;1275;22182;-83
2024/02/22 02:07:01;;;;;;;32.70;18.30;;;;;;;;;;137488;1276;22118;-83
2024/02/22 02:10:04;;;;;;;32.50;18.80;;;;;;;;;;137476;1269;22091;-84
2024/02/22 02:13:07;;;;;;;30.90;18.00;;;;;;;;;;137483;1275;22216;-84
2024/02/22 02:16:09;;;;;;;35.50;17.90;;;;;;;;;;137462;1275;22063;-83
2024/02/22 02:19:12;;;;;;;33.70;18.90;;;;;;;;;;137461;1275;22312;-83
2024/02/22 02:22:14;;;;;;;34.30;18.50;;;;;;;;;;137480;1275;22268;-83
2024/02/22 02:25:18;;;;;;;36.50;18.70;;;;;;;;;;137499;1275;22069;-84
2024/02/22 02:28:20;;;;;;;34.90;19.00;;;;;;;;;;137488;1275;22093;-83
2024/02/22 02:31:23;;;;;;;30.20;17.70;;;;;;;;;;137480;1275;22095;-83
2024/02/22 02:34:25;;;;;;;41.60;20.60;;;;;;;;;;137481;1275;22037;-84
2024/02/22 02:37:28;;;;;;;31.70;19.80;;;;;;;;;;137464;1275;22308;-83
2024/02/22 02:40:30;;;;;;;28.20;18.20;;;;;;;;;;137499;1275;22286;-83
2024/02/22 02:43:33;;;;;;;35.50;19.30;;;;;;;;;;137455;1275;22180;-80
2024/02/22 02:46:35;;;;;;;39.00;19.90;;;;;;;;;;137432;1275;22147;-83
2024/02/22 02:49:37;;;;;;;33.00;19.40;;;;;;;;;;137405;1275;22132;-83
2024/02/22 02:52:40;;;;;;;31.80;19.10;;;;;;;;;;137386;1275;22242;-82
2024/02/22 02:55:42;;;;;;;37.10;19.60;;;;;;;;;;137435;1275;22181;-82
2024/02/22 02:58:45;;;;;;;32.30;18.90;;;;;;;;;;137446;1275;22127;-83
2024/02/22 03:01:47;;;;;;;32.50;18.40;;;;;;;;;;137465;1269;22108;-83
2024/02/22 03:04:50;;;;;;;33.00;19.50;;;;;;;;;;137407;1269;22140;-83
2024/02/22 03:07:53;;;;;;;39.00;19.30;;;;;;;;;;137468;1275;22083;-82
2024/02/22 03:10:55;;;;;;;37.40;19.70;;;;;;;;;;137437;1275;22144;-83
2024/02/22 03:13:58;;;;;;;33.70;19.20;;;;;;;;;;137549;1275;22135;-83
2024/02/22 03:17:00;;;;;;;32.30;19.00;;;;;;;;;;137447;1275;22194;-84
2024/02/22 03:20:04;;;;;;;36.30;19.50;;;;;;;;;;137456;1275;22098;-84
2024/02/22 03:23:07;;;;;;;32.30;19.40;;;;;;;;;;137450;1275;22309;-84
2024/02/22 03:26:10;;;;;;;35.40;19.00;;;;;;;;;;137436;1273;22071;-83
2024/02/22 03:29:12;;;;;;;31.70;18.30;;;;;;;;;;137416;1275;22259;-84
2024/02/22 03:32:15;;;;;;;34.40;18.90;;;;;;;;;;137430;1275;22108;-83
2024/02/22 03:35:17;;;;;;;32.30;18.00;;;;;;;;;;137472;1275;22084;-83
2024/02/22 03:38:20;;;;;;;29.50;17.50;;;;;;;;;;137412;1275;22126;-84
2024/02/22 03:41:24;;;;;;;30.20;17.90;;;;;;;;;;137429;1275;22078;-84
2024/02/22 03:44:26;;;;;;;34.10;18.60;;;;;;;;;;137481;1275;22240;-84
2024/02/22 03:47:28;;;;;;;32.80;18.50;;;;;;;;;;137478;1275;22453;-84
2024/02/22 03:50:34;;;;;;;32.60;18.50;;;;;;;;;;137453;1275;22258;-83
2024/02/22 03:53:37;;;;;;;32.40;17.40;;;;;;;;;;137378;1272;22151;-83
2024/02/22 03:56:40;;;;;;;28.80;18.50;;;;;;;;;;137432;1275;22127;-83
2024/02/22 03:59:42;;;;;;;33.90;18.60;;;;;;;;;;137453;1275;22137;-84
2024/02/22 04:02:46;;;;;;;32.20;18.90;;;;;;;;;;137432;1275;22147;-85
2024/02/22 04:05:49;;;;;;;31.10;18.10;;;;;;;;;;137443;1276;22140;-82
2024/02/22 04:08:52;;;;;;;32.30;18.40;;;;;;;;;;137418;1260;22202;-84
2024/02/22 04:11:55;;;;;;;29.70;18.40;;;;;;;;;;137394;1275;22721;-84
2024/02/22 04:14:57;;;;;;;33.70;17.90;;;;;;;;;;137412;1269;22270;-84
2024/02/22 04:18:00;;;;;;;30.50;18.80;;;;;;;;;;137432;1263;22075;-80
2024/02/22 04:21:02;;;;;;;31.80;18.90;;;;;;;;;;137477;1276;22292;-79
2024/02/22 04:24:05;;;;;;;30.90;18.00;;;;;;;;;;137473;1275;22265;-80
2024/02/22 04:27:07;;;;;;;33.20;17.20;;;;;;;;;;137454;1269;22171;-78
2024/02/22 04:30:10;;;;;;;27.80;16.20;;;;;;;;;;137592;1276;22131;-79
2024/02/22 04:33:13;;;;;;;30.10;16.90;;;;;;;;;;137604;1275;22137;-79
2024/02/22 04:36:15;;;;;;;27.30;15.80;;;;;;;;;;137626;1275;22111;-79
2024/02/22 04:39:18;;;;;;;28.50;15.10;;;;;;;;;;137604;1275;22053;-79
2024/02/22 04:42:21;;;;;;;28.60;14.40;;;;;;;;;;137570;1275;22120;-79
2024/02/22 04:45:23;;;;;;;23.20;14.60;;;;;;;;;;137539;1275;22121;-80
2024/02/22 04:48:26;;;;;;;30.60;16.10;;;;;;;;;;137515;1275;22133;-79
2024/02/22 04:51:28;;;;;;;26.80;15.40;;;;;;;;;;137491;1275;22174;-78
2024/02/22 04:54:32;;;;;;;26.10;14.30;;;;;;;;;;137457;1275;22147;-79
2024/02/22 04:57:35;;;;;;;21.00;13.40;;;;;;;;;;137429;1275;22097;-79
2024/02/22 05:00:38;;;;;;;22.20;13.80;;;;;;;;;;137446;1275;22670;-79
2024/02/22 05:03:40;;;;;;;26.60;12.50;;;;;;;;;;137442;1275;22130;-79
2024/02/22 05:06:43;;;;;;;21.60;13.60;;;;;;;;;;137443;1276;22183;-78
2024/02/22 05:09:45;;;;;;;22.20;12.70;;;;;;;;;;137407;1276;22151;-79
2024/02/22 05:12:48;;;;;;;22.30;12.80;;;;;;;;;;137403;1276;22118;-79
2024/02/22 05:15:50;;;;;;;20.30;12.70;;;;;;;;;;137423;1275;22616;-79
2024/02/22 05:18:53;;;;;;;20.10;12.20;;;;;;;;;;137434;1276;22177;-79
2024/02/22 05:21:55;;;;;;;24.80;12.90;;;;;;;;;;137427;1276;22115;-78
2024/02/22 05:24:58;;;;;;;23.20;12.60;;;;;;;;;;137457;1276;22518;-79
2024/02/22 05:28:00;;;;;;;20.90;10.90;;;;;;;;;;137423;1276;22138;-79
2024/02/22 05:31:03;;;;;;;19.80;12.20;;;;;;;;;;137418;1276;22226;-78
2024/02/22 05:34:06;;;;;;;17.50;11.30;;;;;;;;;;137386;1276;22123;-79
2024/02/22 05:37:11;;;;;;;19.20;11.40;;;;;;;;;;137371;1276;22144;-78
2024/02/22 05:40:14;;;;;;;22.70;11.70;;;;;;;;;;137373;1275;22494;-80
2024/02/22 05:43:16;;;;;;;22.80;12.40;;;;;;;;;;137352;1276;22641;-79
2024/02/22 05:46:19;;;;;;;18.40;10.90;;;;;;;;;;137400;1275;22147;-81
2024/02/22 05:49:21;;;;;;;22.30;12.50;;;;;;;;;;137395;1276;22107;-81
2024/02/22 05:52:24;;;;;;;33.10;11.90;;;;;;;;;;137466;1276;22123;-81
2024/02/22 05:55:26;;;;;;;30.90;10.70;;;;;;;;;;137410;1275;22157;-80
2024/02/22 05:58:30;;;;;;;21.40;10.00;;;;;;;;;;137475;1275;22132;-80
2024/02/22 06:01:33;;;;;;;24.20;10.60;;;;;;;;;;137360;1275;22194;-81
2024/02/22 06:04:36;;;;;;;20.70;10.20;;;;;;;;;;137446;1275;22122;-81
2024/02/22 06:07:39;;;;;;;17.80;9.50;;;;;;;;;;137465;1275;22519;-82
2024/02/22 06:10:41;;;;;;;16.70;9.50;;;;;;;;;;137442;1272;22238;-81
2024/02/22 06:13:44;;;;;;;16.60;9.80;;;;;;;;;;137405;1276;22139;-82
2024/02/22 06:16:47;;;;;;;23.50;9.20;;;;;;;;;;137401;1275;22143;-82
2024/02/22 06:19:53;;;;;;;20.70;8.40;;;;;;;;;;137420;1275;22249;-82
2024/02/22 06:22:55;;;;;;;14.80;8.50;;;;;;;;;;137475;1275;22312;-82
2024/02/22 06:25:58;;;;;;;16.30;9.10;;;;;;;;;;137448;1276;22108;-82
2024/02/22 06:29:01;;;;;;;18.80;9.00;;;;;;;;;;137472;1275;22121;-82
2024/02/22 06:32:03;;;;;;;14.10;9.20;;;;;;;;;;137493;1272;22081;-81
2024/02/22 06:35:07;;;;;;;17.60;8.90;;;;;;;;;;137471;1275;22527;-81
2024/02/22 06:38:09;;;;;;;16.60;10.10;;;;;;;;;;137525;1276;22518;-82
2024/02/22 06:41:22;;;;;;;18.90;9.80;;;;;;;;;;137512;1275;22462;-81
2024/02/22 06:44:24;;;;;;;21.80;10.20;;;;;;;;;;137522;1276;22741;-82
2024/02/22 06:47:27;;;;;;;15.20;9.60;;;;;;;;;;137500;1275;22132;-82
2024/02/22 06:50:30;;;;;;;16.40;9.20;;;;;;;;;;137467;1275;22149;-81
2024/02/22 06:53:33;;;;;;;18.50;8.90;;;;;;;;;;137470;1275;22202;-82
2024/02/22 06:56:35;;;;;;;17.50;9.00;;;;;;;;;;137458;1275;22620;-82
2024/02/22 06:59:38;;;;;;;17.60;8.80;;;;;;;;;;137444;1275;22124;-82
2024/02/22 07:02:41;;;;;;;12.10;7.80;;;;;;;;;;137384;1275;22207;-82
2024/02/22 07:05:44;;;;;;;12.50;7.70;;;;;;;;;;137458;1275;22234;-82
2024/02/22 07:08:47;;;;;;;13.50;8.30;;;;;;;;;;137487;1275;22115;-81
2024/02/22 07:11:50;;;;;;;16.60;7.70;;;;;;;;;;137512;1275;22589;-82
2024/02/22 07:14:53;;;;;;;9.90;7.50;;;;;;;;;;137511;1275;22495;-81
2024/02/22 07:17:55;;;;;;;10.80;7.70;;;;;;;;;;137522;1275;22165;-81
2024/02/22 07:20:58;;;;;;;12.70;8.00;;;;;;;;;;137504;1275;22174;-82
2024/02/22 07:24:03;;;;;;;11.80;7.50;;;;;;;;;;137577;1276;22132;-82
2024/02/22 07:27:07;;;;;;;11.20;7.30;;;;;;;;;;137515;1275;22120;-80
2024/02/22 07:30:09;;;;;;;10.00;7.60;;;;;;;;;;137563;1275;22152;-79
2024/02/22 07:33:12;;;;;;;12.00;7.60;;;;;;;;;;137528;1275;22103;-82
2024/02/22 07:36:15;;;;;;;11.50;7.80;;;;;;;;;;137438;1275;22197;-82
2024/02/22 07:39:17;;;;;;;13.60;7.90;;;;;;;;;;137435;1276;22366;-81
2024/02/22 07:42:20;;;;;;;14.60;8.10;;;;;;;;;;137450;1276;22266;-82
2024/02/22 07:45:28;;;;;;;12.40;7.80;;;;;;;;;;137445;1276;22121;-80
2024/02/22 07:48:31;;;;;;;13.40;7.60;;;;;;;;;;137441;1276;22160;-81
2024/02/22 07:51:34;;;;;;;12.70;8.70;;;;;;;;;;137455;1275;22181;-80
2024/02/22 07:54:38;;;;;;;13.70;8.10;;;;;;;;;;137382;1276;22089;-81
2024/02/22 07:57:40;;;;;;;13.50;8.50;;;;;;;;;;137447;1276;22161;-81
2024/02/22 08:00:43;;;;;;;14.90;8.40;;;;;;;;;;137483;1276;22146;-82
2024/02/22 08:03:45;;;;;;;10.80;7.50;;;;;;;;;;137396;1276;22122;-80
2024/02/22 08:06:48;;;;;;;12.10;7.40;;;;;;;;;;137445;1276;22088;-81
2024/02/22 08:09:51;;;;;;;16.30;7.50;;;;;;;;;;137376;1276;22100;-80
2024/02/22 08:12:57;;;;;;;15.40;7.80;;;;;;;;;;137477;1276;22124;-81
2024/02/22 08:15:59;;;;;;;15.90;7.50;;;;;;;;;;137439;1276;22988;-82
2024/02/22 08:19:04;;;;;;;12.00;7.60;;;;;;;;;;137348;1276;22165;-81
2024/02/22 08:22:08;;;;;;;12.50;7.70;;;;;;;;;;137423;1276;22221;-81
2024/02/22 08:25:11;;;;;;;11.80;7.40;;;;;;;;;;137443;1276;22111;-82
2024/02/22 08:28:14;;;;;;;11.30;7.20;;;;;;;;;;137459;1276;22144;-80
2024/02/22 08:31:17;;;;;;;13.60;8.00;;;;;;;;;;137403;1276;22103;-82
2024/02/22 08:34:20;;;;;;;13.60;8.00;;;;;;;;;;137387;1276;22121;-82
2024/02/22 08:37:23;;;;;;;13.20;8.30;;;;;;;;;;137388;1276;22097;-81
2024/02/22 08:40:25;;;;;;;11.60;7.50;;;;;;;;;;137381;1276;22071;-82
2024/02/22 08:43:28;;;;;;;17.90;8.60;;;;;;;;;;137398;1276;22602;-81
2024/02/22 08:46:31;;;;;;;13.80;8.10;;;;;;;;;;137460;1276;22129;-81
2024/02/22 08:49:34;;;;;;;14.10;8.60;;;;;;;;;;137487;1276;22120;-79
2024/02/22 08:52:37;;;;;;;11.90;7.50;;;;;;;;;;137404;1269;22167;-79
2024/02/22 08:55:39;;;;;;;18.60;8.50;;;;;;;;;;137447;1276;22155;-82
2024/02/22 08:58:47;;;;;;;14.30;8.20;;;;;;;;;;137465;1276;22356;-82
2024/02/22 09:01:49;;;;;;;17.40;9.50;;;;;;;;;;137476;1276;22134;-82
2024/02/22 09:04:52;;;;;;;21.10;8.80;;;;;;;;;;137484;1276;22126;-82
2024/02/22 09:07:55;;;;;;;16.40;9.10;;;;;;;;;;137079;1276;466430;-81
2024/02/22 09:10:57;;;;;;;14.80;8.30;;;;;;;;;;137412;1276;22175;-81
2024/02/22 09:14:00;;;;;;;14.70;8.20;;;;;;;;;;137429;1276;22140;-81
2024/02/22 09:17:02;;;;;;;12.70;8.20;;;;;;;;;;137382;1276;22618;-81
2024/02/22 09:20:05;;;;;;;16.10;8.30;;;;;;;;;;137426;1276;22132;-81
2024/02/22 09:23:12;;;;;;;13.50;8.30;;;;;;;;;;137409;1276;22803;-81
2024/02/22 09:26:15;;;;;;;23.30;9.10;;;;;;;;;;137431;1276;22085;-80
2024/02/22 09:29:17;;;;;;;14.30;8.80;;;;;;;;;;137442;1276;22608;-82
2024/02/22 09:32:20;;;;;;;15.50;8.90;;;;;;;;;;137291;1276;22655;-81
2024/02/22 09:35:24;;;;;;;13.00;8.00;;;;;;;;;;137477;1273;22649;-81
2024/02/22 09:38:27;;;;;;;17.80;9.10;;;;;;;;;;137224;1275;22200;-82
2024/02/22 09:41:29;;;;;;;13.80;8.70;;;;;;;;;;137485;1276;22621;-81
2024/02/22 09:44:32;;;;;;;14.40;8.30;;;;;;;;;;137403;1276;22125;-82
2024/02/22 09:47:35;;;;;;;11.90;8.50;;;;;;;;;;137477;1276;22676;-82
2024/02/22 09:50:38;;;;;;;13.00;8.80;;;;;;;;;;137340;1276;22899;-82
2024/02/22 09:53:44;;;;;;;14.70;8.00;;;;;;;;;;137391;1276;22595;-81
2024/02/22 09:56:47;;;;;;;10.90;7.80;;;;;;;;;;137509;1276;22615;-82
2024/02/22 09:59:50;;;;;;;12.40;7.80;;;;;;;;;;137488;1276;22211;-81
2024/02/22 10:02:53;;;;;;;10.70;7.20;;;;;;;;;;137475;1275;22585;-81
2024/02/22 10:05:55;;;;;;;11.10;7.90;;;;;;;;;;137471;1275;22106;-83
2024/02/22 10:08:58;;;;;;;11.70;7.00;;;;;;;;;;137479;1276;22205;-82
2024/02/22 10:12:05;;;;;;;13.40;7.10;;;;;;;;;;137566;1276;22132;-81
2024/02/22 10:15:11;;;;;;;14.60;8.70;;;;;;;;;;137561;1276;22125;-81
2024/02/22 10:18:14;;;;;;;17.20;9.40;;;;;;;;;;137576;1260;22215;-82
2024/02/22 10:21:17;;;;;;;16.90;10.30;;;;;;;;;;137470;1276;22138;-81
2024/02/22 10:24:19;;;;;;;17.30;10.70;;;;;;;;;;137486;1276;22131;-81
2024/02/22 10:27:24;;;;;;;13.60;9.60;;;;;;;;;;137384;1276;22604;-81
2024/02/22 10:30:27;;;;;;;14.60;8.20;;;;;;;;;;137473;1275;22595;-81
2024/02/22 10:33:30;;;;;;;13.90;8.90;;;;;;;;;;137435;1276;22159;-82
2024/02/22 10:36:33;;;;;;;12.40;8.60;;;;;;;;;;137466;1276;22091;-80
2024/02/22 10:39:35;;;;;;;15.20;8.90;;;;;;;;;;137441;1276;22551;-82
2024/02/22 10:42:38;;;;;;;15.20;8.60;;;;;;;;;;137334;1275;22148;-81
2024/02/22 10:45:41;;;;;;;12.50;8.00;;;;;;;;;;137440;1276;22276;-80
2024/02/22 10:48:44;;;;;;;18.20;8.20;;;;;;;;;;137457;1276;22326;-81
2024/02/22 10:51:46;;;;;;;14.80;7.90;;;;;;;;;;137482;1276;22111;-82
2024/02/22 10:54:49;;;;;;;13.30;8.50;;;;;;;;;;137469;1276;22112;-82
2024/02/22 10:57:51;;;;;;;16.90;8.70;;;;;;;;;;137461;1276;22249;-82
2024/02/22 11:00:55;;;;;;;13.00;7.90;;;;;;;;;;137494;1275;22618;-82
2024/02/22 11:03:57;;;;;;;14.60;9.20;;;;;;;;;;137448;1275;22163;-81
2024/02/22 11:07:00;;;;;;;16.10;9.70;;;;;;;;;;137421;1276;22923;-81
2024/02/22 11:10:03;;;;;;;13.60;8.70;;;;;;;;;;137345;1275;22127;-82
2024/02/22 11:13:05;;;;;;;16.40;8.20;;;;;;;;;;137478;1272;22151;-81
2024/02/22 11:16:08;;;;;;;11.50;7.50;;;;;;;;;;137420;1276;22118;-80
2024/02/22 11:19:12;;;;;;;10.50;7.10;;;;;;;;;;137461;1276;22143;-81
2024/02/22 11:22:15;;;;;;;12.30;7.40;;;;;;;;;;137470;1275;22150;-81
2024/02/22 11:25:17;;;;;;;12.80;6.90;;;;;;;;;;137456;1276;22160;-82
2024/02/22 11:28:20;;;;;;;10.60;6.80;;;;;;;;;;137397;1276;22090;-82
2024/02/22 11:31:23;;;;;;;12.60;7.00;;;;;;;;;;137418;1276;22128;-84
2024/02/22 11:34:26;;;;;;;18.00;7.00;;;;;;;;;;137398;1276;22177;-80
2024/02/22 11:37:29;;;;;;;15.10;6.70;;;;;;;;;;137443;1276;22128;-81
2024/02/22 11:40:34;;;;;;;14.80;7.00;;;;;;;;;;137321;1276;22380;-83
2024/02/22 11:43:37;;;;;;;9.60;6.90;;;;;;;;;;137457;1276;22150;-81
2024/02/22 11:46:40;;;;;;;10.40;6.70;;;;;;;;;;137476;1272;22173;-81
2024/02/22 11:49:43;;;;;;;11.80;6.90;;;;;;;;;;137435;1276;22297;-80
2024/02/22 11:52:45;;;;;;;15.60;6.40;;;;;;;;;;137400;1276;22094;-81
2024/02/22 11:55:48;;;;;;;9.00;6.50;;;;;;;;;;137397;1276;22131;-81
2024/02/22 11:58:50;;;;;;;8.00;6.20;;;;;;;;;;137427;1275;22094;-80
2024/02/22 12:01:53;;;;;;;11.50;6.80;;;;;;;;;;137442;1276;22147;-80
2024/02/22 12:04:57;;;;;;;10.90;5.80;;;;;;;;;;137437;1276;22115;-80
2024/02/22 12:08:00;;;;;;;10.90;6.90;;;;;;;;;;137433;1276;22124;-80
2024/02/22 12:11:04;;;;;;;9.70;6.40;;;;;;;;;;137430;1276;22139;-82
2024/02/22 12:14:07;;;;;;;11.70;6.30;;;;;;;;;;137392;1275;22417;-81
2024/02/22 12:17:10;;;;;;;14.80;6.80;;;;;;;;;;137400;1275;22129;-81
2024/02/22 12:20:15;;;;;;;15.30;6.30;;;;;;;;;;137478;1276;22164;-80
2024/02/22 12:23:20;;;;;;;10.50;5.60;;;;;;;;;;137490;1276;22122;-79
2024/02/22 12:26:22;;;;;;;34.20;7.20;;;;;;;;;;137366;1275;22282;-81
2024/02/22 12:29:25;;;;;;;38.90;7.50;;;;;;;;;;137295;1276;22915;-81
2024/02/22 12:32:28;;;;;;;21.90;6.90;;;;;;;;;;137372;1275;22180;-81
2024/02/22 12:35:31;;;;;;;12.50;6.50;;;;;;;;;;137361;1275;22089;-81
2024/02/22 12:38:33;;;;;;;17.60;6.20;;;;;;;;;;137436;1276;22124;-80
2024/02/22 12:41:37;;;;;;;47.70;7.50;;;;;;;;;;137455;1276;22209;-80
2024/02/22 12:44:40;;;;;;;11.40;6.40;;;;;;;;;;137445;1276;21971;-81
2024/02/22 12:47:43;;;;;;;81.50;10.10;;;;;;;;;;137402;1275;22592;-82
2024/02/22 12:50:45;;;;;;;25.80;6.10;;;;;;;;;;137372;1276;22122;-81
2024/02/22 12:53:48;;;;;;;21.40;6.20;;;;;;;;;;137319;1276;22258;-80
2024/02/22 12:56:51;;;;;;;14.50;6.30;;;;;;;;;;137342;1276;22184;-80
2024/02/22 12:59:54;;;;;;;11.20;5.60;;;;;;;;;;137314;1276;22632;-81
2024/02/22 13:02:57;;;;;;;10.10;5.60;;;;;;;;;;137380;1276;22134;-80
2024/02/22 13:06:03;;;;;;;41.00;6.10;;;;;;;;;;137496;1276;22113;-80
2024/02/22 13:09:05;;;;;;;165.90;11.70;;;;;;;;;;136949;1276;22112;-79
2024/02/22 13:12:08;;;;;;;28.90;6.30;;;;;;;;;;136244;1276;22140;-80
2024/02/22 13:15:10;;;;;;;9.90;5.70;;;;;;;;;;136287;1294;22150;-80
2024/02/22 13:18:13;;;;;;;10.20;5.70;;;;;;;;;;136293;1294;22177;-80
2024/02/22 13:21:17;;;;;;;9.90;6.10;;;;;;;;;;136043;1295;22166;-81
2024/02/22 13:24:20;;;;;;;11.20;5.40;;;;;;;;;;135449;1296;22038;-77
2024/02/22 13:27:23;;;;;;;8.90;5.50;;;;;;;;;;135610;1296;22120;-76
2024/02/22 13:30:25;;;;;;;20.70;13.40;;;;;;;;;;135642;1296;22586;-78
2024/02/22 13:33:28;;;;;;;163.80;13.70;;;;;;;;;;135681;1296;22133;-77
2024/02/22 13:36:32;;;;;;;79.70;8.80;;;;;;;;;;135691;1296;22137;-77
2024/02/22 13:39:34;;;;;;;13.30;5.50;;;;;;;;;;135664;1296;22141;-77
2024/02/22 13:42:39;;;;;;;51.30;7.60;;;;;;;;;;135671;1296;22146;-77
2024/02/22 13:45:42;;;;;;;12.50;5.80;;;;;;;;;;135644;1296;22118;-77
2024/02/22 13:48:44;;;;;;;15.80;5.50;;;;;;;;;;135656;1296;22142;-77
2024/02/22 13:51:47;;;;;;;9.90;6.00;;;;;;;;;;135618;1296;22166;-77
2024/02/22 13:54:50;;;;;;;15.80;5.50;;;;;;;;;;135593;1296;22125;-77
2024/02/22 13:57:53;;;;;;;47.50;6.80;;;;;;;;;;135612;1296;22112;-77
2024/02/22 14:00:56;;;;;;;22.40;5.30;;;;;;;;;;135640;1296;22154;-77
2024/02/22 14:04:00;;;;;;;14.20;5.60;;;;;;;;;;135651;1296;22175;-78
2024/02/22 14:07:02;;;;;;;20.70;5.60;;;;;;;;;;135667;1296;22142;-78
2024/02/22 14:10:06;;;;;;;51.70;6.90;;;;;;;;;;135730;1286;22379;-78
2024/02/22 14:13:10;;;;;;;44.00;6.60;;;;;;;;;;135686;1296;22509;-75
2024/02/22 14:16:12;;;;;;;49.10;7.10;;;;;;;;;;135626;1296;22200;-78
2024/02/22 14:19:17;;;;;;;10.30;5.40;;;;;;;;;;135625;1296;22839;-78
2024/02/22 14:22:19;;;;;;;14.40;5.70;;;;;;;;;;135652;1296;22194;-78
2024/02/22 14:25:22;;;;;;;14.70;5.60;;;;;;;;;;135609;1296;22554;-78
2024/02/22 14:28:25;;;;;;;7.10;5.10;;;;;;;;;;135629;1296;22124;-79
2024/02/22 14:31:27;;;;;;;40.80;6.10;;;;;;;;;;135692;1296;22841;-79
2024/02/22 14:34:30;;;;;;;20.50;5.60;;;;;;;;;;135710;1296;22199;-79
2024/02/22 14:37:32;;;;;;;8.70;5.70;;;;;;;;;;135746;1296;22862;-79
2024/02/22 14:40:34;;;;;;;13.30;5.90;;;;;;;;;;135745;1292;22529;-78
2024/02/22 14:43:37;;;;;;;8.80;5.10;;;;;;;;;;135786;1296;22126;-78
2024/02/22 14:46:40;;;;;;;8.30;5.70;;;;;;;;;;135758;1296;22095;-79
2024/02/22 14:49:44;;;;;;;10.40;6.20;;;;;;;;;;135781;1295;22473;-78
2024/02/22 14:52:46;;;;;;;;;;;;;;;;;;135782;1296;22453;-79
2024/02/22 14:55:50;;;;;;;11.70;6.30;;;;;;;;;;135715;1295;22102;-79
2024/02/22 14:58:52;;;;;;;30.90;6.50;;;;;;;;;;135727;1295;22666;-78
2024/02/22 15:01:55;;;;;;;15.60;6.70;;;;;;;;;;135768;1295;22708;-79
2024/02/22 15:04:58;;;;;;;12.60;7.10;;;;;;;;;;135778;1296;22113;-78
2024/02/22 15:08:01;;;;;;;20.50;6.20;;;;;;;;;;135767;1296;22138;-78
2024/02/22 15:11:03;;;;;;;8.00;5.90;;;;;;;;;;135766;1296;22134;-77
2024/02/22 15:14:06;;;;;;;32.10;7.00;;;;;;;;;;135775;1296;22109;-78
2024/02/22 15:17:08;;;;;;;12.70;7.10;;;;;;;;;;135798;1296;22138;-77
2024/02/22 15:20:11;;;;;;;30.50;8.30;;;;;;;;;;135751;1296;22726;-77
2024/02/22 15:23:13;;;;;;;20.30;7.40;;;;;;;;;;135688;1296;22117;-78
2024/02/22 15:26:16;;;;;;;25.70;7.90;;;;;;;;;;135689;1296;22807;-77
2024/02/22 15:29:19;;;;;;;16.00;7.70;;;;;;;;;;135722;1296;22587;-77
2024/02/22 15:32:21;;;;;;;14.90;7.70;;;;;;;;;;135686;1296;22528;-78
2024/02/22 15:35:24;;;;;;;14.00;7.70;;;;;;;;;;135707;1296;22135;-78
2024/02/22 15:38:27;;;;;;;12.70;7.00;;;;;;;;;;135684;1286;22134;-78
2024/02/22 15:41:29;;;;;;;11.20;6.90;;;;;;;;;;135726;1296;22169;-78
2024/02/22 15:44:32;;;;;;;52.40;9.10;;;;;;;;;;135768;1295;22122;-78
2024/02/22 15:47:34;;;;;;;32.80;8.90;;;;;;;;;;135835;1296;22651;-78
2024/02/22 15:50:37;;;;;;;100.80;10.80;;;;;;;;;;135834;1296;22203;-76
2024/02/22 15:53:39;;;;;;;45.50;8.70;;;;;;;;;;135825;1296;22100;-76
2024/02/22 15:56:42;;;;;;;97.00;11.10;;;;;;;;;;135849;1296;22115;-76
2024/02/22 15:59:46;;;;;;;187.60;15.50;;;;;;;;;;135839;1296;22163;-76
2024/02/22 16:02:48;;;;;;;158.00;14.10;;;;;;;;;;135843;1296;22513;-78
2024/02/22 16:05:51;;;;;;;65.70;11.40;;;;;;;;;;135878;1296;22113;-77
2024/02/22 16:08:55;;;;;;;45.90;10.60;;;;;;;;;;136024;1295;22121;-77
2024/02/22 16:11:58;;;;;;;50.00;13.00;;;;;;;;;;135906;1297;22160;-76
2024/02/22 16:15:04;;;;;;;45.20;13.10;;;;;;;;;;135005;1304;22131;-78
2024/02/22 16:18:07;;;;;;;58.50;16.20;;;;;;;;;;135037;1304;22119;-78
2024/02/22 16:21:10;;;;;;;64.90;22.40;;;;;;;;;;135022;1304;22165;-79
2024/02/22 16:24:12;;;;;;;62.60;19.60;;;;;;;;;;134967;1304;22073;-78
2024/02/22 16:27:17;;;;;;;64.50;18.80;;;;;;;;;;134889;1304;22161;-78
2024/02/22 16:30:20;;;;;;;66.00;19.40;;;;;;;;;;134834;1304;22069;-80
2024/02/22 16:33:24;;;;;;;193.40;29.20;;;;;;;;;;134827;1304;22733;-78
2024/02/22 16:36:29;;;;;;;82.20;23.70;;;;;;;;;;134796;1304;22096;-77
2024/02/22 16:39:31;;;;;;;65.60;22.00;;;;;;;;;;134832;1304;22145;-79
2024/02/22 16:42:36;;;;;;;37.10;16.10;;;;;;;;;;134840;1304;22053;-78
2024/02/22 16:45:38;;;;;;;36.70;16.40;;;;;;;;;;134838;1304;22698;-79
2024/02/22 16:48:41;;;;;;;30.70;13.50;;;;;;;;;;134807;1304;22169;-78
2024/02/22 16:51:43;;;;;;;38.50;14.40;;;;;;;;;;134793;1304;22371;-80
2024/02/22 16:54:46;;;;;;;44.00;13.60;;;;;;;;;;134785;1304;22141;-80
2024/02/22 16:57:48;;;;;;;29.40;12.20;;;;;;;;;;134778;1304;22241;-79
2024/02/22 17:00:51;;;;;;;22.10;10.90;;;;;;;;;;134754;1304;22154;-78
2024/02/22 17:03:53;;;;;;;21.70;8.90;;;;;;;;;;134773;1304;22129;-78
2024/02/22 17:06:59;;;;;;;33.60;10.10;;;;;;;;;;134790;1304;22145;-79
2024/02/22 17:10:02;;;;;;;28.60;9.20;;;;;;;;;;134835;1304;22084;-79
2024/02/22 17:13:05;;;;;;;18.00;9.60;;;;;;;;;;134837;1299;22618;-79
2024/02/22 17:16:07;;;;;;;12.90;9.50;;;;;;;;;;134825;1304;22069;-77
2024/02/22 17:19:09;;;;;;;17.40;10.20;;;;;;;;;;134791;1304;22137;-79
2024/02/22 17:22:12;;;;;;;16.40;10.00;;;;;;;;;;134814;1304;22124;-79
2024/02/22 17:25:14;;;;;;;16.30;9.90;;;;;;;;;;134802;1304;22196;-78
2024/02/22 17:28:18;;;;;;;13.30;9.50;;;;;;;;;;134794;1304;22170;-79
2024/02/22 17:31:23;;;;;;;17.30;10.20;;;;;;;;;;134807;1304;22821;-80
2024/02/22 17:34:25;;;;;;;21.70;12.30;;;;;;;;;;134792;1304;22492;-78
2024/02/22 17:37:28;;;;;;;22.00;13.00;;;;;;;;;;134846;1304;22253;-77